Weather at Newark Liberty International Airport

Public forecast

Using degrees Fahrenheit for public forecast. Weather courtesy of forecast.io.

Current aviation weather report (METAR) for Newark Liberty International Airport

Retrieved 2021/01/23 21:51 UTC (27 minutes ago):

KEWR 232151Z 30016G29KT 10SM FEW055 M01/M17 A3011 RMK AO2 PK WND 30031/2114 SLP194 T10111167

Aviation forecast (TAF) for Newark Liberty International Airport

Retrieved 2021/01/23 18:30 UTC (4 hours ago):

TAF KEWR 231728Z 2318/2424 31023G32KT P6SM FEW025 SCT040 FM240000 30019G29KT P6SM FEW040 FM240500 30014G24KT P6SM FEW040 FM241800 30015G22KT P6SM FEW090 FEW150 FM242300 30010G15KT P6SM SCT120